Time;durP1;ratioP1;P1;durP2;ratioP2;P2;SDS_P1;SDS_P2;PMS_P1;PMS_P2;Temp;Humidity;BMP_temperature;BMP_pressure;BME280_temperature;BME280_humidity;BME280_pressure;Samples;Min_cycle;Max_cycle;Signal;HPM_P1;HPM_P2
2022/12/31 00:01:13;;;;;;;73.43;28.23;;;6.50;85.10;;;;;;5094415;28;20035;-12
2022/12/31 00:03:39;;;;;;;45.33;22.20;;;6.50;85.20;;;;;;5094725;28;20051;-13
2022/12/31 00:06:12;;;;;;;46.13;23.83;;;6.40;85.20;;;;;;5094882;28;20047;-11
2022/12/31 00:08:38;;;;;;;64.38;26.48;;;6.40;85.20;;;;;;5094146;28;20044;-12
2022/12/31 00:11:04;;;;;;;40.92;23.55;;;6.40;85.20;;;;;;5094290;28;20074;-12
2022/12/31 00:13:29;;;;;;;55.17;26.55;;;6.30;85.20;;;;;;5094309;28;20024;-12
2022/12/31 00:16:12;;;;;;;52.65;26.10;;;6.30;85.20;;;;;;5094379;28;20093;-12
2022/12/31 00:18:38;;;;;;;47.13;23.23;;;6.20;85.30;;;;;;5094298;28;20069;-12
2022/12/31 00:21:08;;;;;;;61.05;25.20;;;6.20;85.40;;;;;;5092783;28;20092;-12
2022/12/31 00:23:35;;;;;;;51.30;24.83;;;6.20;85.40;;;;;;5094193;28;20452;-12
2022/12/31 00:26:06;;;;;;;48.00;24.40;;;6.20;85.40;;;;;;5094435;28;20336;-12
2022/12/31 00:28:33;;;;;;;48.53;21.92;;;6.20;85.60;;;;;;5094381;28;20166;-12
2022/12/31 00:31:17;;;;;;;66.65;27.95;;;6.20;85.60;;;;;;5093624;28;20036;-12
2022/12/31 00:33:43;;;;;;;62.47;26.55;;;6.20;85.60;;;;;;5093817;28;20097;-12
2022/12/31 00:36:14;;;;;;;59.80;27.08;;;6.20;85.50;;;;;;5094247;28;20035;-12
2022/12/31 00:38:42;;;;;;;76.30;30.80;;;6.20;85.50;;;;;;5094297;28;20020;-12
2022/12/31 00:41:08;;;;;;;77.55;30.00;;;6.20;85.60;;;;;;5093532;28;20035;-13
2022/12/31 00:43:35;;;;;;;69.30;29.23;;;6.20;85.80;;;;;;5094111;28;20024;-12
2022/12/31 00:46:02;;;;;;;68.75;29.45;;;6.20;85.80;;;;;;5093845;28;20032;-12
2022/12/31 00:48:28;;;;;;;91.03;31.27;;;6.20;85.80;;;;;;5093876;28;20048;-11
2022/12/31 00:50:55;;;;;;;60.30;27.27;;;6.20;85.80;;;;;;5093986;28;20459;-12
2022/12/31 00:53:24;;;;;;;41.17;22.98;;;6.20;85.80;;;;;;5093790;28;20107;-12
2022/12/31 00:55:50;;;;;;;52.15;24.73;;;6.20;86.00;;;;;;5093549;28;20035;-12
2022/12/31 00:58:16;;;;;;;34.22;19.48;;;6.20;86.10;;;;;;5093958;28;20013;-12
2022/12/31 01:00:43;;;;;;;35.35;19.08;;;6.20;86.10;;;;;;5092258;28;20040;-12
2022/12/31 01:03:09;;;;;;;35.55;21.58;;;6.30;86.10;;;;;;5093180;28;20365;-12
2022/12/31 01:05:36;;;;;;;33.40;18.75;;;6.30;86.10;;;;;;5093655;28;20484;-12
2022/12/31 01:08:02;;;;;;;32.28;19.15;;;6.40;85.90;;;;;;5093049;28;20040;-11
2022/12/31 01:13:13;;;;;;;53.35;24.00;;;6.50;86.10;;;;;;5093424;28;20038;-12
2022/12/31 01:15:39;;;;;;;31.05;17.80;;;6.50;86.20;;;;;;5093287;28;20035;-13
2022/12/31 01:18:07;;;;;;;43.53;19.23;;;6.50;86.10;;;;;;5093208;28;20112;-11
2022/12/31 01:20:40;;;;;;;36.17;21.42;;;6.60;85.90;;;;;;5093121;28;20414;-11
2022/12/31 01:23:07;;;;;;;37.63;20.88;;;6.60;85.70;;;;;;5092961;28;20039;-12
2022/12/31 01:25:38;;;;;;;45.10;23.25;;;6.70;85.60;;;;;;5093063;28;20076;-12
2022/12/31 01:28:05;;;;;;;46.20;23.52;;;6.70;85.50;;;;;;5093310;28;20145;-11
2022/12/31 01:30:31;;;;;;;41.70;23.42;;;6.80;85.30;;;;;;5092885;28;20054;-12
2022/12/31 01:32:57;;;;;;;38.58;22.40;;;6.80;85.30;;;;;;5092805;28;20024;-12
2022/12/31 01:35:24;;;;;;;36.67;21.05;;;6.80;85.30;;;;;;5092916;28;20518;-12
2022/12/31 01:37:50;;;;;;;37.22;23.33;;;6.80;85.30;;;;;;5093126;28;20023;-12
2022/12/31 01:40:16;;;;;;;38.60;22.00;;;6.80;85.30;;;;;;5092782;28;20502;-12
2022/12/31 01:42:42;;;;;;;59.25;26.85;;;6.80;85.40;;;;;;5092554;28;20024;-12
2022/12/31 01:45:12;;;;;;;75.28;29.08;;;6.80;85.40;;;;;;5092406;28;20027;-12
2022/12/31 01:47:46;;;;;;;62.28;28.00;;;6.80;85.30;;;;;;5092548;28;20507;-12
2022/12/31 01:50:42;;;;;;;31.60;19.23;;;6.70;85.20;;;;;;5092706;28;20487;-12
2022/12/31 01:53:09;;;;;;;38.58;22.15;;;6.60;85.30;;;;;;5010392;28;20088;-14
2022/12/31 01:55:42;;;;;;;33.47;19.83;;;6.60;85.40;;;;;;5010737;28;20560;-14
2022/12/31 01:58:21;;;;;;;39.35;22.55;;;6.60;85.50;;;;;;5011051;28;20057;-12
2022/12/31 02:00:48;;;;;;;34.55;20.65;;;6.60;85.50;;;;;;5010909;28;20029;-12
2022/12/31 02:03:14;;;;;;;36.03;21.67;;;6.60;85.40;;;;;;5010511;28;20038;-13
2022/12/31 02:05:49;;;;;;;38.92;22.23;;;6.50;85.40;;;;;;5010495;28;20121;-13
2022/12/31 02:08:15;;;;;;;39.85;23.23;;;6.50;85.50;;;;;;5010197;28;20046;-13
2022/12/31 02:10:41;;;;;;;36.38;21.25;;;6.50;85.40;;;;;;5010700;28;20038;-13
2022/12/31 02:13:07;;;;;;;35.67;21.70;;;6.40;85.40;;;;;;5010495;28;20038;-13
2022/12/31 02:15:48;;;;;;;41.00;21.50;;;6.40;85.40;;;;;;5010458;28;20062;-13
2022/12/31 02:18:17;;;;;;;43.90;24.92;;;6.30;85.40;;;;;;5010384;28;20058;-12
2022/12/31 02:20:58;;;;;;;39.13;22.25;;;6.30;85.40;;;;;;5010337;28;20036;-13
2022/12/31 02:23:38;;;;;;;44.35;24.17;;;6.20;85.50;;;;;;5010461;28;20398;-13
2022/12/31 02:26:13;;;;;;;46.08;25.67;;;6.20;85.60;;;;;;5010506;28;20061;-13
2022/12/31 02:28:54;;;;;;;34.28;20.48;;;6.10;85.60;;;;;;5023072;28;20093;-14
2022/12/31 02:31:52;;;;;;;35.08;21.75;;;6.10;85.70;;;;;;5092662;28;20032;-13
2022/12/31 02:34:29;;;;;;;32.30;20.17;;;6.10;85.80;;;;;;5092840;28;20023;-12
2022/12/31 02:36:59;;;;;;;72.45;23.30;;;6.00;85.90;;;;;;5092187;28;20472;-12
2022/12/31 02:39:25;;;;;;;49.15;25.10;;;6.00;85.80;;;;;;5092441;28;20499;-13
2022/12/31 02:41:52;;;;;;;43.03;23.65;;;5.90;85.80;;;;;;5092482;28;20096;-13
2022/12/31 02:44:24;;;;;;;52.50;24.98;;;5.90;85.80;;;;;;5092164;28;20050;-13
2022/12/31 02:47:04;;;;;;;78.53;27.63;;;5.80;85.90;;;;;;5091826;28;20035;-13
2022/12/31 02:49:45;;;;;;;70.68;25.52;;;5.80;85.90;;;;;;5091051;28;20048;-12
2022/12/31 02:52:17;;;;;;;64.40;26.48;;;5.70;86.00;;;;;;5092120;28;20039;-14
2022/12/31 02:54:42;;;;;;;44.65;23.85;;;5.70;86.10;;;;;;5092555;28;20150;-13
2022/12/31 02:57:20;;;;;;;52.60;25.33;;;5.60;86.20;;;;;;5095718;28;20123;-13
2022/12/31 03:02:48;;;;;;;54.45;24.15;;;5.70;86.30;;;;;;5096212;28;20035;-13
2022/12/31 03:05:16;;;;;;;54.50;24.95;;;5.60;86.40;;;;;;5096081;28;20028;-14
2022/12/31 03:07:44;;;;;;;54.20;24.65;;;5.60;86.40;;;;;;5095650;28;20028;-13
2022/12/31 03:10:10;;;;;;;56.13;26.00;;;5.70;86.50;;;;;;5095500;28;20051;-13
2022/12/31 03:12:45;;;;;;;48.20;23.60;;;5.70;86.50;;;;;;5095699;28;20020;-13
2022/12/31 03:15:32;;;;;;;67.95;25.70;;;5.60;86.50;;;;;;5095670;28;20043;-12
2022/12/31 03:18:06;;;;;;;50.92;23.50;;;5.70;86.50;;;;;;5095819;28;20024;-13
2022/12/31 03:26:28;;;;;;;53.58;24.77;;;5.70;86.70;;;;;;5096000;28;20054;-12
2022/12/31 03:28:54;;;;;;;52.65;24.27;;;5.70;86.70;;;;;;5095370;28;20024;-13
2022/12/31 03:31:20;;;;;;;44.97;22.75;;;5.70;86.70;;;;;;5095362;28;20368;-13
2022/12/31 03:33:46;;;;;;;49.05;23.20;;;5.70;86.70;;;;;;5095394;28;20031;-13
2022/12/31 03:36:13;;;;;;;46.67;23.75;;;5.80;86.80;;;;;;5095352;28;20099;-13
2022/12/31 03:38:40;;;;;;;54.13;24.40;;;5.80;86.80;;;;;;5095468;28;20016;-12
2022/12/31 03:41:09;;;;;;;71.13;24.25;;;5.90;86.90;;;;;;5094937;28;20035;-12
2022/12/31 03:43:35;;;;;;;69.38;25.45;;;5.90;86.90;;;;;;5095330;28;20077;-13
2022/12/31 03:46:01;;;;;;;72.90;26.35;;;5.90;87.00;;;;;;5095378;28;20032;-13
2022/12/31 03:48:27;;;;;;;73.53;26.65;;;6.00;87.00;;;;;;5094822;28;20092;-13
2022/12/31 03:50:53;;;;;;;72.45;26.05;;;6.10;87.00;;;;;;5094870;28;20024;-13
2022/12/31 03:53:19;;;;;;;76.72;26.85;;;6.10;87.10;;;;;;5093559;28;20383;-13
2022/12/31 03:55:49;;;;;;;66.68;25.52;;;6.10;87.10;;;;;;5095028;28;20475;-11
2022/12/31 03:58:15;;;;;;;54.92;23.67;;;6.20;87.10;;;;;;5095120;28;20055;-12
2022/12/31 04:00:40;;;;;;;75.90;26.40;;;6.30;87.10;;;;;;5093665;28;20059;-12
2022/12/31 04:03:06;;;;;;;80.85;28.25;;;6.30;87.10;;;;;;5094633;28;20028;-12
2022/12/31 04:05:32;;;;;;;70.10;28.20;;;6.40;87.10;;;;;;5094454;28;20027;-12
2022/12/31 04:07:58;;;;;;;68.47;26.92;;;6.40;87.00;;;;;;5094364;28;20434;-13
2022/12/31 04:10:24;;;;;;;74.47;27.73;;;6.50;87.00;;;;;;5094895;28;20471;-12
2022/12/31 04:12:50;;;;;;;80.30;27.65;;;6.50;87.00;;;;;;5094293;28;20016;-12
2022/12/31 04:15:20;;;;;;;103.13;30.88;;;6.60;87.00;;;;;;5093220;28;20465;-12
2022/12/31 04:17:47;;;;;;;79.72;27.38;;;6.60;87.10;;;;;;5094586;28;20024;-13
2022/12/31 04:20:14;;;;;;;86.78;27.48;;;6.60;87.10;;;;;;5094321;28;20024;-13
2022/12/31 04:22:40;;;;;;;75.10;27.88;;;6.60;87.10;;;;;;5094325;28;20539;-12
2022/12/31 04:25:10;;;;;;;91.18;27.90;;;6.60;87.10;;;;;;5094099;28;20119;-12
2022/12/31 04:27:42;;;;;;;82.43;26.80;;;6.60;87.10;;;;;;5094176;28;20107;-12
2022/12/31 04:30:09;;;;;;;71.53;26.88;;;6.60;87.10;;;;;;5093994;28;20093;-13
2022/12/31 04:32:35;;;;;;;60.63;24.55;;;6.60;87.20;;;;;;5093922;28;20115;-12
2022/12/31 04:35:01;;;;;;;43.00;22.15;;;6.60;87.20;;;;;;5093824;28;20123;-13
2022/12/31 04:37:27;;;;;;;85.43;27.27;;;6.60;87.30;;;;;;5094237;28;20111;-13
2022/12/31 04:39:52;;;;;;;71.13;25.67;;;6.60;87.30;;;;;;5094005;28;20541;-14
2022/12/31 04:42:18;;;;;;;56.47;24.77;;;6.60;87.20;;;;;;5094169;28;20016;-13
2022/12/31 04:44:44;;;;;;;81.07;27.08;;;6.60;87.30;;;;;;5094103;28;20028;-14
2022/12/31 04:47:10;;;;;;;81.15;26.15;;;6.60;87.30;;;;;;5093529;28;20032;-14
2022/12/31 04:49:36;;;;;;;57.60;22.85;;;6.60;87.30;;;;;;5093579;28;20089;-13
2022/12/31 04:52:02;;;;;;;76.72;26.23;;;6.70;87.40;;;;;;5093901;28;20052;-14
2022/12/31 04:54:28;;;;;;;69.13;26.20;;;6.70;87.50;;;;;;5093893;28;20020;-14
2022/12/31 04:56:54;;;;;;;72.97;24.90;;;6.70;87.50;;;;;;5093393;28;20559;-11
2022/12/31 04:59:20;;;;;;;53.22;21.67;;;6.70;87.50;;;;;;5093530;28;20107;-12
2022/12/31 05:01:46;;;;;;;45.28;21.30;;;6.70;87.50;;;;;;5094177;28;20028;-12
2022/12/31 05:04:11;;;;;;;58.17;22.27;;;6.70;87.60;;;;;;5093790;28;20380;-12
2022/12/31 05:06:38;;;;;;;68.82;25.27;;;6.70;87.60;;;;;;5093398;28;20078;-11
2022/12/31 05:09:04;;;;;;;52.80;22.35;;;6.80;87.60;;;;;;5092997;28;20058;-11
2022/12/31 05:11:29;;;;;;;68.60;25.52;;;6.80;87.50;;;;;;5093756;28;20124;-12
2022/12/31 05:13:56;;;;;;;65.30;22.83;;;6.80;87.50;;;;;;5092017;28;20398;-12
2022/12/31 05:16:22;;;;;;;55.47;21.75;;;6.80;87.60;;;;;;5093553;28;20023;-12
2022/12/31 05:18:47;;;;;;;74.97;25.55;;;6.80;87.60;;;;;;5092507;28;20583;-14
2022/12/31 05:21:19;;;;;;;68.55;25.38;;;6.80;87.60;;;;;;5091863;28;20020;-13
2022/12/31 05:23:46;;;;;;;84.60;26.60;;;6.80;87.60;;;;;;5093418;28;20046;-13
2022/12/31 05:26:12;;;;;;;72.25;27.05;;;6.80;87.60;;;;;;5093095;28;20104;-14
2022/12/31 05:28:38;;;;;;;54.70;25.10;;;6.80;87.60;;;;;;5093016;28;20024;-13
2022/12/31 05:31:04;;;;;;;73.93;26.48;;;6.80;87.60;;;;;;5092982;28;20127;-13
2022/12/31 05:33:30;;;;;;;69.07;26.77;;;6.80;87.60;;;;;;5092917;28;20464;-13
2022/12/31 05:35:59;;;;;;;66.93;25.98;;;6.80;87.60;;;;;;5093010;28;20028;-13
2022/12/31 05:38:25;;;;;;;74.95;27.02;;;6.80;87.70;;;;;;5093067;28;20027;-13
2022/12/31 05:41:05;;;;;;;61.42;25.42;;;6.80;87.70;;;;;;5092816;28;20051;-12
2022/12/31 05:43:31;;;;;;;71.13;26.48;;;6.80;87.70;;;;;;5091565;28;20032;-14
2022/12/31 05:46:02;;;;;;;83.85;27.77;;;6.80;87.70;;;;;;5092763;28;20042;-13
2022/12/31 05:48:28;;;;;;;48.58;21.85;;;6.80;87.80;;;;;;5072356;28;20033;-13
2022/12/31 05:50:54;;;;;;;41.90;20.58;;;6.80;87.70;;;;;;5072591;28;20078;-13
2022/12/31 05:53:20;;;;;;;48.58;23.70;;;6.80;87.80;;;;;;5072409;28;20480;-14
2022/12/31 05:55:47;;;;;;;70.95;27.48;;;6.90;87.80;;;;;;5072453;28;20021;-13
2022/12/31 05:58:14;;;;;;;79.68;27.88;;;6.90;87.90;;;;;;5072423;28;20025;-13
2022/12/31 06:00:41;;;;;;;69.80;27.48;;;6.90;87.90;;;;;;5072403;28;20036;-14
2022/12/31 06:03:06;;;;;;;44.55;21.50;;;6.90;87.80;;;;;;5072055;28;20017;-13
2022/12/31 06:05:32;;;;;;;38.28;21.42;;;6.90;87.80;;;;;;5072649;28;20025;-12
2022/12/31 06:07:58;;;;;;;64.13;28.48;;;6.90;87.80;;;;;;5071957;28;20024;-14
2022/12/31 06:10:24;;;;;;;58.83;24.75;;;6.90;87.90;;;;;;5072480;28;20037;-13
2022/12/31 06:12:50;;;;;;;69.70;26.45;;;6.90;87.90;;;;;;5073115;28;20024;-13
2022/12/31 06:15:16;;;;;;;65.28;26.08;;;6.90;87.90;;;;;;5072519;28;20421;-13
2022/12/31 06:17:42;;;;;;;75.03;27.58;;;6.90;87.90;;;;;;5072082;28;20473;-14
2022/12/31 06:20:08;;;;;;;73.70;27.58;;;6.90;87.80;;;;;;5070938;28;20023;-13
2022/12/31 06:22:33;;;;;;;69.15;25.05;;;6.90;87.80;;;;;;5072453;28;20105;-13
2022/12/31 06:24:59;;;;;;;65.03;25.48;;;6.90;87.80;;;;;;5071987;28;20469;-13
2022/12/31 06:27:25;;;;;;;55.63;23.52;;;6.90;87.80;;;;;;5072621;28;20027;-13
2022/12/31 06:29:51;;;;;;;55.08;25.23;;;6.90;87.80;;;;;;5072678;28;20032;-14
2022/12/31 06:32:17;;;;;;;60.92;26.50;;;6.90;87.80;;;;;;5076048;28;20058;-14
2022/12/31 06:34:43;;;;;;;54.63;27.27;;;6.90;87.90;;;;;;5075112;28;20036;-13
2022/12/31 06:37:09;;;;;;;58.97;26.13;;;6.90;87.90;;;;;;5075826;28;20028;-14
2022/12/31 06:39:35;;;;;;;54.15;27.00;;;6.90;87.90;;;;;;5076073;28;20016;-13
2022/12/31 06:42:01;;;;;;;52.40;25.85;;;6.90;87.90;;;;;;5075887;28;20063;-13
2022/12/31 06:44:27;;;;;;;61.17;26.50;;;6.90;87.90;;;;;;5075895;28;20111;-13
2022/12/31 06:46:52;;;;;;;44.35;22.67;;;6.90;87.90;;;;;;5075579;28;20040;-14
2022/12/31 06:49:18;;;;;;;52.15;25.83;;;6.90;87.90;;;;;;5076151;28;20017;-14
2022/12/31 06:51:46;;;;;;;47.67;25.40;;;6.90;87.90;;;;;;5074596;28;20042;-13
2022/12/31 06:54:12;;;;;;;46.53;24.30;;;6.90;87.90;;;;;;5076002;28;20078;-13
2022/12/31 06:56:38;;;;;;;53.00;26.98;;;6.80;87.90;;;;;;5074515;28;20111;-13
2022/12/31 06:59:04;;;;;;;49.42;25.30;;;6.90;88.00;;;;;;5075436;28;20107;-13
2022/12/31 07:01:48;;;;;;;44.30;24.70;;;6.80;87.90;;;;;;5075535;28;20553;-13
2022/12/31 07:04:26;;;;;;;45.30;24.83;;;6.80;87.90;;;;;;5075534;28;20032;-12
2022/12/31 07:07:07;;;;;;;33.13;21.13;;;6.70;87.90;;;;;;5075629;28;20029;-15
2022/12/31 07:09:51;;;;;;;49.28;28.02;;;6.70;87.90;;;;;;5075175;28;20056;-14
2022/12/31 07:12:26;;;;;;;43.97;24.88;;;6.70;88.00;;;;;;5075827;28;20191;-13
2022/12/31 07:15:37;;;;;;;41.30;23.27;;;6.70;88.10;;;;;;5073913;28;20449;-14
2022/12/31 07:18:19;;;;;;;43.88;25.77;;;6.70;88.10;;;;;;5054670;28;20024;-13
2022/12/31 07:20:45;;;;;;;51.13;29.10;;;6.70;88.10;;;;;;5075429;28;20519;-13
2022/12/31 07:23:11;;;;;;;39.35;22.67;;;6.70;88.10;;;;;;5074904;28;20037;-14
2022/12/31 07:25:43;;;;;;;36.53;22.42;;;6.70;88.10;;;;;;5073752;28;20067;-13
2022/12/31 07:28:41;;;;;;;39.85;23.83;;;6.70;88.10;;;;;;5075439;28;20093;-13
2022/12/31 07:31:09;;;;;;;39.83;25.00;;;6.80;88.20;;;;;;5004880;28;20510;-13
2022/12/31 07:33:50;;;;;;;35.00;21.73;;;6.80;88.30;;;;;;5075026;28;20025;-13
2022/12/31 07:36:28;;;;;;;37.80;22.67;;;6.90;88.20;;;;;;5075249;28;20047;-13
2022/12/31 07:38:59;;;;;;;44.78;26.15;;;6.90;88.10;;;;;;5074687;28;20025;-14
2022/12/31 07:41:59;;;;;;;40.75;26.17;;;7.00;88.10;;;;;;5074610;28;20029;-13
2022/12/31 07:44:36;;;;;;;37.15;22.38;;;7.00;88.10;;;;;;5075347;28;20485;-13
2022/12/31 07:47:04;;;;;;;44.53;24.92;;;7.00;88.00;;;;;;5074812;28;20039;-13
2022/12/31 07:49:32;;;;;;;38.90;23.27;;;7.10;88.00;;;;;;5074908;28;20070;-13
2022/12/31 07:51:58;;;;;;;30.52;19.75;;;7.10;87.90;;;;;;5074978;28;20028;-14
2022/12/31 07:54:24;;;;;;;34.42;21.17;;;7.10;88.00;;;;;;5074890;28;20025;-13
2022/12/31 07:56:51;;;;;;;44.83;27.65;;;7.20;88.00;;;;;;5074723;28;20036;-13
2022/12/31 07:59:27;;;;;;;41.88;24.13;;;7.30;88.10;;;;;;5074513;28;20125;-13
2022/12/31 08:02:01;;;;;;;30.67;19.55;;;7.30;88.00;;;;;;5074840;28;20056;-13
2022/12/31 08:04:45;;;;;;;;;;;7.30;87.90;;;;;;5073620;28;20028;-13
2022/12/31 08:07:32;;;;;;;37.40;22.15;;;7.40;87.90;;;;;;5074906;28;19965;-12
2022/12/31 08:10:22;;;;;;;34.53;21.70;;;7.50;88.00;;;;;;5074218;28;20052;-12
2022/12/31 08:12:49;;;;;;;35.10;20.90;;;7.60;88.00;;;;;;5074398;28;20047;-13
2022/12/31 08:15:17;;;;;;;31.77;20.48;;;7.70;87.90;;;;;;5074458;28;20052;-12
2022/12/31 08:17:43;;;;;;;40.50;23.92;;;7.80;87.90;;;;;;5074851;28;20059;-12
2022/12/31 08:20:16;;;;;;;34.33;20.85;;;7.90;87.80;;;;;;5074645;28;20070;-11
2022/12/31 08:23:10;;;;;;;38.70;23.20;;;7.90;87.60;;;;;;5072815;28;20032;-13
2022/12/31 08:25:36;;;;;;;45.03;25.45;;;8.00;87.50;;;;;;5074526;28;20090;-12
2022/12/31 08:28:10;;;;;;;45.95;27.23;;;8.10;87.30;;;;;;5074239;28;20075;-13
2022/12/31 08:30:47;;;;;;;39.30;23.77;;;8.10;87.30;;;;;;5072709;28;20028;-13
2022/12/31 08:33:22;;;;;;;44.45;26.75;;;8.10;87.20;;;;;;5074145;28;20040;-13
2022/12/31 08:35:59;;;;;;;40.75;24.38;;;8.20;87.20;;;;;;5073934;28;20031;-12
2022/12/31 08:38:53;;;;;;;48.63;27.65;;;8.20;87.20;;;;;;5074114;28;20036;-12
2022/12/31 08:41:40;;;;;;;43.28;26.23;;;8.30;87.10;;;;;;5072818;28;20077;-12
2022/12/31 08:44:28;;;;;;;50.63;29.45;;;8.30;87.00;;;;;;5073710;28;20036;-12
2022/12/31 08:47:16;;;;;;;44.92;27.63;;;8.30;86.90;;;;;;5073698;28;20082;-13
2022/12/31 08:49:42;;;;;;;43.45;27.55;;;8.30;86.80;;;;;;5073729;28;20041;-12
2022/12/31 08:52:34;;;;;;;50.63;30.33;;;8.30;86.70;;;;;;5073030;28;20407;-12
2022/12/31 08:55:01;;;;;;;51.83;32.05;;;8.30;86.70;;;;;;5068520;28;20059;-12
2022/12/31 08:57:54;;;;;;;44.45;28.73;;;8.30;86.80;;;;;;5073708;28;20104;-13
2022/12/31 09:00:20;;;;;;;44.35;26.17;;;8.30;86.90;;;;;;5073432;28;20029;-12
2022/12/31 09:03:08;;;;;;;42.97;26.70;;;8.40;86.90;;;;;;5073179;28;20116;-10
2022/12/31 09:05:53;;;;;;;41.58;26.70;;;8.40;86.70;;;;;;5073417;28;20373;-12
2022/12/31 09:08:38;;;;;;;39.47;24.90;;;8.40;86.50;;;;;;5073162;28;20146;-12
2022/12/31 09:11:28;;;;;;;43.05;27.67;;;8.40;86.50;;;;;;5072893;28;20132;-11
2022/12/31 09:14:05;;;;;;;40.65;26.27;;;8.40;86.50;;;;;;5073423;28;20056;-11
2022/12/31 09:16:46;;;;;;;44.80;27.27;;;8.40;86.40;;;;;;5073501;28;20029;-11
2022/12/31 09:19:11;;;;;;;40.58;25.77;;;8.40;86.40;;;;;;5072981;28;20469;-11
2022/12/31 09:21:45;;;;;;;41.05;26.02;;;8.40;86.40;;;;;;5073014;28;20516;-11
2022/12/31 09:24:12;;;;;;;;;;;8.40;86.40;;;;;;5073371;28;20100;-12
2022/12/31 09:26:44;;;;;;;39.97;25.70;;;8.40;86.40;;;;;;5073138;28;19935;-11
2022/12/31 09:29:17;;;;;;;35.40;23.00;;;8.40;86.40;;;;;;5072598;28;20506;-12
2022/12/31 09:32:11;;;;;;;44.25;28.17;;;8.50;86.60;;;;;;5072978;28;20489;-11
2022/12/31 09:34:51;;;;;;;43.77;27.07;;;8.60;86.90;;;;;;5073114;28;20027;-11
2022/12/31 09:37:34;;;;;;;35.20;22.17;;;8.70;86.90;;;;;;5073084;28;20021;-12
2022/12/31 09:40:28;;;;;;;32.17;19.90;;;8.80;86.70;;;;;;5072728;28;20433;-11
2022/12/31 09:42:57;;;;;;;38.97;26.17;;;8.90;86.50;;;;;;5068613;28;20052;-11
2022/12/31 09:45:51;;;;;;;34.33;21.88;;;9.00;86.40;;;;;;5072562;28;20111;-12
2022/12/31 09:48:54;;;;;;;31.58;20.55;;;9.10;86.10;;;;;;5072879;28;20028;-12
2022/12/31 09:51:40;;;;;;;31.30;21.33;;;9.30;85.80;;;;;;5072431;28;20025;-12
2022/12/31 09:54:24;;;;;;;27.27;19.25;;;9.50;85.40;;;;;;5072474;28;20035;-12
2022/12/31 09:57:14;;;;;;;32.38;19.95;;;9.60;85.20;;;;;;5072524;28;20107;-10
2022/12/31 09:59:53;;;;;;;33.45;22.25;;;9.70;85.30;;;;;;5072461;28;20067;-11
2022/12/31 10:02:42;;;;;;;35.65;23.63;;;9.90;85.50;;;;;;5072504;28;20399;-11
2022/12/31 10:05:29;;;;;;;27.20;18.60;;;10.10;85.40;;;;;;5061139;28;20384;-11
2022/12/31 10:08:11;;;;;;;27.92;17.90;;;10.20;84.90;;;;;;5072432;28;20384;-13
2022/12/31 10:10:51;;;;;;;31.45;20.02;;;10.30;84.80;;;;;;5072731;28;20044;-12
2022/12/31 10:13:41;;;;;;;25.33;17.92;;;10.40;84.10;;;;;;5072362;28;20028;-12
2022/12/31 10:16:29;;;;;;;29.90;20.38;;;10.50;83.70;;;;;;5072682;28;20016;-12
2022/12/31 10:19:16;;;;;;;31.40;20.55;;;10.70;83.70;;;;;;5070724;28;20029;-11
2022/12/31 10:22:11;;;;;;;31.92;22.10;;;10.80;83.30;;;;;;5072498;28;20111;-11
2022/12/31 10:24:48;;;;;;;27.20;19.13;;;10.80;83.00;;;;;;5072591;28;20033;-11
2022/12/31 10:27:26;;;;;;;26.35;17.73;;;10.90;82.90;;;;;;5072196;28;20035;-11
2022/12/31 10:30:11;;;;;;;28.40;18.27;;;10.90;83.10;;;;;;5072015;28;20033;-11
2022/12/31 10:33:35;;;;;;;29.30;19.80;;;11.00;82.80;;;;;;5072286;28;20366;-11
2022/12/31 10:36:08;;;;;;;32.75;20.80;;;11.20;82.60;;;;;;4990830;28;20126;-12
2022/12/31 10:38:58;;;;;;;29.33;20.17;;;11.30;82.30;;;;;;4990746;28;20398;-11
2022/12/31 10:41:42;;;;;;;27.80;18.73;;;11.30;82.20;;;;;;4990621;28;20026;-12
2022/12/31 10:44:38;;;;;;;27.60;19.15;;;11.30;81.40;;;;;;4990634;28;20042;-11
2022/12/31 10:47:28;;;;;;;29.02;20.33;;;11.40;81.50;;;;;;4990669;28;20161;-11
2022/12/31 10:50:14;;;;;;;32.10;21.60;;;11.50;80.60;;;;;;4990417;28;20041;-12
2022/12/31 10:52:46;;;;;;;31.13;20.23;;;11.50;80.00;;;;;;4990615;28;20034;-11
2022/12/31 10:55:33;;;;;;;29.27;19.13;;;11.60;79.10;;;;;;4990475;28;20038;-11
2022/12/31 10:58:17;;;;;;;30.73;20.02;;;11.60;79.50;;;;;;4990335;28;20042;-11
2022/12/31 11:01:08;;;;;;;29.13;20.25;;;11.70;79.20;;;;;;4990526;28;20042;-11
2022/12/31 11:03:55;;;;;;;30.15;19.83;;;11.70;78.50;;;;;;4990416;28;20041;-11
2022/12/31 11:06:49;;;;;;;30.40;19.48;;;11.70;78.90;;;;;;4990364;28;20170;-11
2022/12/31 11:09:52;;;;;;;27.15;18.38;;;11.70;79.20;;;;;;4990135;28;20104;-11
2022/12/31 11:12:27;;;;;;;27.02;18.88;;;11.70;79.20;;;;;;5042246;28;20041;-11
2022/12/31 11:15:34;;;;;;;28.83;19.38;;;11.80;78.90;;;;;;5072194;28;20020;-11
2022/12/31 11:18:14;;;;;;;28.27;19.70;;;11.80;78.40;;;;;;5075236;28;20032;-12
2022/12/31 11:21:07;;;;;;;31.88;21.60;;;11.90;78.30;;;;;;5075265;28;20476;-11
2022/12/31 11:23:43;;;;;;;30.70;20.75;;;11.90;78.50;;;;;;5076075;28;20445;-11
2022/12/31 11:26:15;;;;;;;25.30;17.50;;;11.90;78.60;;;;;;5075904;28;20401;-12
2022/12/31 11:28:56;;;;;;;32.17;20.95;;;11.90;78.80;;;;;;5075086;28;20064;-11
2022/12/31 11:31:28;;;;;;;28.27;19.08;;;11.90;78.80;;;;;;5075075;28;20038;-11
2022/12/31 11:34:24;;;;;;;31.70;20.80;;;11.90;78.90;;;;;;5075197;28;20108;-12
2022/12/31 11:37:09;;;;;;;30.98;20.75;;;11.90;78.80;;;;;;5074845;28;20059;-12
2022/12/31 11:40:04;;;;;;;30.02;20.67;;;11.90;78.60;;;;;;5075370;28;20086;-11
2022/12/31 11:42:45;;;;;;;24.80;17.60;;;11.90;78.90;;;;;;5064053;28;20089;-12
2022/12/31 11:45:36;;;;;;;28.45;18.42;;;11.90;79.10;;;;;;5074970;28;20047;-11
2022/12/31 11:48:21;;;;;;;27.20;19.10;;;11.90;79.20;;;;;;5074562;28;20519;-11
2022/12/31 11:51:04;;;;;;;30.98;21.73;;;11.90;79.40;;;;;;5074843;28;20483;-15
2022/12/31 11:53:50;;;;;;;30.08;21.05;;;11.90;79.10;;;;;;5074697;28;20039;-11
2022/12/31 11:56:19;;;;;;;31.92;21.55;;;11.90;78.50;;;;;;5075202;28;20028;-11
2022/12/31 11:58:53;;;;;;;32.42;20.58;;;12.00;78.70;;;;;;5074437;28;20017;-11
2022/12/31 12:01:23;;;;;;;;;;;12.00;77.10;;;;;;5074984;28;20020;-12
2022/12/31 12:03:49;;;;;;;29.27;18.77;;;12.00;77.40;;;;;;5074359;28;19904;-11
2022/12/31 12:06:24;;;;;;;28.38;20.13;;;11.90;77.70;;;;;;5074375;28;20111;-11
2022/12/31 12:08:50;;;;;;;30.02;20.45;;;12.10;76.10;;;;;;5073995;28;20134;-11
2022/12/31 12:11:25;;;;;;;30.40;20.63;;;12.00;76.20;;;;;;5072987;28;20048;-11
2022/12/31 12:13:51;;;;;;;28.95;19.27;;;12.00;76.80;;;;;;5074331;28;20024;-12
2022/12/31 12:16:21;;;;;;;32.08;22.20;;;11.90;77.10;;;;;;5072879;28;20516;-11
2022/12/31 12:19:07;;;;;;;25.85;18.83;;;11.90;77.30;;;;;;5074072;28;20029;-12
2022/12/31 12:21:33;;;;;;;31.70;21.20;;;11.90;77.70;;;;;;5074732;28;20419;-11
2022/12/31 12:24:24;;;;;;;32.72;21.23;;;11.90;77.70;;;;;;5074037;28;20024;-12
2022/12/31 12:26:50;;;;;;;26.17;18.58;;;11.90;77.70;;;;;;5074066;28;20056;-12
2022/12/31 12:29:33;;;;;;;28.60;19.65;;;11.90;77.90;;;;;;5074097;28;20388;-11
2022/12/31 12:32:00;;;;;;;31.70;20.38;;;11.90;78.10;;;;;;5073951;28;20027;-12
2022/12/31 12:34:31;;;;;;;30.63;20.50;;;11.90;78.20;;;;;;5074341;28;20107;-11
2022/12/31 12:36:56;;;;;;;26.95;19.00;;;12.00;78.20;;;;;;5074162;28;20021;-11
2022/12/31 12:39:26;;;;;;;28.65;18.48;;;12.00;78.00;;;;;;5074026;28;20051;-11
2022/12/31 12:41:59;;;;;;;26.27;17.45;;;12.00;77.90;;;;;;5073679;28;20024;-12
2022/12/31 12:44:25;;;;;;;25.98;18.08;;;12.10;77.80;;;;;;5073978;28;20559;-12
2022/12/31 12:46:52;;;;;;;25.60;17.60;;;12.20;77.80;;;;;;5072227;28;20111;-12
2022/12/31 12:49:36;;;;;;;23.38;16.27;;;12.20;77.80;;;;;;5073393;28;20033;-12
2022/12/31 12:52:16;;;;;;;28.90;19.40;;;12.30;77.80;;;;;;5073535;28;20037;-12
2022/12/31 12:55:10;;;;;;;29.90;19.77;;;12.40;77.70;;;;;;5073933;28;20024;-11
2022/12/31 12:57:35;;;;;;;;;;;12.30;77.60;;;;;;5074123;28;20115;-11
2022/12/31 13:00:21;;;;;;;28.98;19.15;;;12.40;77.60;;;;;;5073447;28;19999;-12
2022/12/31 13:03:00;;;;;;;29.73;19.83;;;12.40;77.50;;;;;;5073179;28;20036;-13
2022/12/31 13:05:38;;;;;;;31.70;21.48;;;12.40;77.50;;;;;;5073292;28;20024;-12
2022/12/31 13:08:32;;;;;;;29.67;18.95;;;12.40;77.40;;;;;;5073204;28;20056;-12
2022/12/31 13:11:17;;;;;;;;;;;12.40;77.30;;;;;;5073477;28;20029;-11
2022/12/31 13:13:45;;;;;;;39.45;24.88;;;12.20;76.50;;;;;;5073090;28;20012;-12
2022/12/31 13:16:30;;;;;;;32.78;23.92;;;12.10;76.80;;;;;;5073470;28;20025;-12
2022/12/31 13:19:04;;;;;;;33.42;21.98;;;12.00;77.10;;;;;;5072865;28;20103;-11
2022/12/31 13:21:33;;;;;;;29.65;19.83;;;11.90;77.70;;;;;;5073289;28;20021;-12